Time;durP1;ratioP1;P1;durP2;ratioP2;P2;SDS_P1;SDS_P2;PMS_P1;PMS_P2;Temp;Humidity;BMP_temperature;BMP_pressure;BME280_temperature;BME280_humidity;BME280_pressure;Samples;Min_cycle;Max_cycle;Signal;HPM_P1;HPM_P2
2021/07/28 00:02:08;;;;;;;9.43;4.38;;;25.10;58.20;;;;;;5034371;28;20045;-70
2021/07/28 00:04:38;;;;;;;8.48;4.60;;;25.10;58.00;;;;;;5035653;28;20060;-70
2021/07/28 00:07:04;;;;;;;8.30;5.07;;;25.00;58.00;;;;;;5036532;28;20459;-70
2021/07/28 00:09:31;;;;;;;8.25;5.10;;;25.00;58.00;;;;;;5035462;28;20072;-70
2021/07/28 00:11:56;;;;;;;7.70;4.63;;;25.00;58.00;;;;;;5036519;28;20030;-70
2021/07/28 00:14:22;;;;;;;7.20;4.75;;;25.00;58.10;;;;;;5035322;28;20112;-71
2021/07/28 00:16:48;;;;;;;9.75;5.43;;;25.00;58.00;;;;;;5067918;28;20021;-70
2021/07/28 00:19:26;;;;;;;8.30;4.65;;;25.00;58.10;;;;;;5036390;28;20052;-70
2021/07/28 00:24:37;;;;;;;8.25;4.93;;;25.00;58.20;;;;;;5036031;28;20200;-70
2021/07/28 00:27:04;;;;;;;6.43;4.53;;;25.00;58.10;;;;;;5035822;28;20072;-70
2021/07/28 00:29:31;;;;;;;10.98;5.45;;;25.00;58.00;;;;;;5035816;28;20022;-70
2021/07/28 00:31:57;;;;;;;9.60;4.90;;;25.00;57.90;;;;;;5067658;28;20029;-70
2021/07/28 00:34:23;;;;;;;7.22;5.18;;;25.00;57.90;;;;;;5067423;28;20033;-70
2021/07/28 00:36:49;;;;;;;8.60;5.30;;;25.00;57.90;;;;;;5068142;28;20375;-70
2021/07/28 00:39:15;;;;;;;9.75;5.13;;;25.00;57.80;;;;;;5035660;28;20026;-70
2021/07/28 00:41:45;;;;;;;12.00;5.60;;;25.00;57.70;;;;;;5034808;28;20121;-70
2021/07/28 00:44:11;;;;;;;10.20;5.10;;;25.00;57.70;;;;;;5035887;28;20033;-70
2021/07/28 00:46:38;;;;;;;7.68;5.38;;;25.00;57.70;;;;;;5035917;28;20013;-70
2021/07/28 00:49:05;;;;;;;9.70;5.47;;;25.00;57.60;;;;;;5035452;28;20479;-70
2021/07/28 00:51:31;;;;;;;13.30;5.78;;;25.00;57.70;;;;;;5067597;28;20022;-70
2021/07/28 00:53:57;;;;;;;9.18;6.05;;;25.00;57.80;;;;;;5035855;28;20116;-70
2021/07/28 00:56:25;;;;;;;11.15;7.32;;;24.90;57.80;;;;;;5033744;28;20033;-70
2021/07/28 00:58:50;;;;;;;11.18;6.22;;;24.90;57.90;;;;;;5029714;28;20033;-71
2021/07/28 01:01:16;;;;;;;10.40;6.13;;;24.90;58.00;;;;;;5067006;28;20021;-70
2021/07/28 01:03:42;;;;;;;10.40;6.50;;;24.90;58.10;;;;;;5035653;28;20045;-70
2021/07/28 01:06:09;;;;;;;8.80;6.20;;;24.80;58.00;;;;;;5034177;28;20021;-70
2021/07/28 01:08:35;;;;;;;11.45;5.95;;;24.80;58.00;;;;;;5035252;28;20025;-70
2021/07/28 01:11:02;;;;;;;12.93;6.30;;;24.80;57.80;;;;;;5067041;28;20088;-70
2021/07/28 01:13:34;;;;;;;13.27;6.78;;;24.90;57.90;;;;;;5034224;28;20372;-70
2021/07/28 01:16:10;;;;;;;12.93;6.80;;;24.80;57.80;;;;;;5035055;28;20095;-70
2021/07/28 01:18:36;;;;;;;13.80;6.75;;;24.90;57.80;;;;;;5014406;28;20080;-70
2021/07/28 01:21:05;;;;;;;11.45;6.45;;;24.80;57.70;;;;;;5023699;28;20064;-71
2021/07/28 01:23:31;;;;;;;10.02;5.82;;;24.80;57.80;;;;;;5034884;28;20432;-70
2021/07/28 01:26:01;;;;;;;11.40;6.70;;;24.80;57.80;;;;;;5033343;28;20032;-70
2021/07/28 01:28:28;;;;;;;10.80;6.07;;;24.80;57.80;;;;;;5034820;28;20029;-70
2021/07/28 01:31:04;;;;;;;13.65;6.78;;;24.80;58.00;;;;;;5035078;28;20021;-70
2021/07/28 01:33:49;;;;;;;12.25;6.80;;;24.70;58.10;;;;;;5033197;28;20025;-70
2021/07/28 01:36:20;;;;;;;9.37;6.30;;;24.60;58.30;;;;;;5034850;28;20023;-70
2021/07/28 01:38:46;;;;;;;12.18;6.65;;;24.50;58.80;;;;;;5033033;28;20029;-68
2021/07/28 01:41:12;;;;;;;9.57;6.53;;;24.50;59.30;;;;;;5034870;28;20017;-73
2021/07/28 01:43:39;;;;;;;9.95;6.65;;;24.40;59.70;;;;;;5033674;28;20029;-73
2021/07/28 01:46:06;;;;;;;11.18;7.55;;;24.30;60.00;;;;;;5033736;28;20025;-73
2021/07/28 01:48:32;;;;;;;13.30;7.32;;;24.40;60.30;;;;;;5066759;28;20376;-64
2021/07/28 01:50:58;;;;;;;16.48;7.53;;;24.30;60.60;;;;;;5033456;28;20025;-64
2021/07/28 01:53:25;;;;;;;13.23;7.40;;;24.30;60.90;;;;;;5033441;28;20029;-65
2021/07/28 01:55:55;;;;;;;13.38;7.03;;;24.20;61.30;;;;;;5034142;28;20021;-64
2021/07/28 01:58:21;;;;;;;10.85;7.07;;;24.20;61.80;;;;;;5032829;28;20053;-65
2021/07/28 02:00:48;;;;;;;12.50;7.43;;;24.20;62.20;;;;;;5034192;28;20029;-66
2021/07/28 02:03:14;;;;;;;18.38;8.40;;;24.10;62.50;;;;;;5033580;28;20079;-65
2021/07/28 02:05:41;;;;;;;13.73;8.00;;;24.10;62.60;;;;;;5033726;28;20049;-64
2021/07/28 02:08:12;;;;;;;15.45;9.05;;;24.00;63.10;;;;;;5034500;28;20364;-64
2021/07/28 02:10:41;;;;;;;11.60;8.18;;;24.00;63.40;;;;;;5066627;28;20411;-64
2021/07/28 02:13:07;;;;;;;20.90;10.98;;;24.00;63.70;;;;;;5065192;28;20021;-64
2021/07/28 02:15:35;;;;;;;19.35;9.27;;;23.90;63.40;;;;;;5034321;28;20472;-64
2021/07/28 02:18:02;;;;;;;17.70;9.93;;;24.00;63.70;;;;;;5032407;28;20031;-64
2021/07/28 02:20:28;;;;;;;14.98;9.07;;;24.00;63.60;;;;;;5033901;28;20025;-63
2021/07/28 02:22:54;;;;;;;15.82;9.38;;;24.00;64.10;;;;;;5065763;28;20037;-63
2021/07/28 02:25:20;;;;;;;17.63;9.23;;;24.00;64.10;;;;;;5065920;28;20407;-64
2021/07/28 02:27:46;;;;;;;15.77;9.13;;;24.00;64.10;;;;;;5066385;28;20025;-63
2021/07/28 02:30:13;;;;;;;18.70;10.20;;;24.00;64.40;;;;;;5065343;28;20406;-64
2021/07/28 02:32:39;;;;;;;21.63;10.65;;;24.00;64.30;;;;;;5033144;28;20033;-65
2021/07/28 02:35:07;;;;;;;23.67;11.13;;;24.10;64.20;;;;;;5034283;28;20044;-64
2021/07/28 02:37:33;;;;;;;22.13;11.18;;;24.10;64.10;;;;;;5034218;28;20099;-64
2021/07/28 02:39:59;;;;;;;20.20;11.75;;;24.10;64.00;;;;;;5033652;28;20026;-64
2021/07/28 02:42:25;;;;;;;25.75;12.65;;;24.20;64.10;;;;;;5032629;28;20095;-63
2021/07/28 02:44:51;;;;;;;25.95;12.93;;;24.20;64.10;;;;;;5033815;28;20471;-63
2021/07/28 02:47:17;;;;;;;25.60;12.35;;;24.20;64.20;;;;;;5033369;28;20013;-64
2021/07/28 02:49:42;;;;;;;22.08;12.52;;;24.20;64.20;;;;;;5032188;28;20526;-63
2021/07/28 02:52:08;;;;;;;20.55;12.80;;;24.20;64.10;;;;;;5032314;28;20017;-63
2021/07/28 02:54:34;;;;;;;24.48;13.18;;;24.20;64.30;;;;;;5032661;28;20052;-63
2021/07/28 02:57:00;;;;;;;25.73;12.88;;;24.20;64.00;;;;;;5033395;28;20026;-64
2021/07/28 02:59:25;;;;;;;28.33;13.68;;;24.30;64.90;;;;;;5033005;28;20444;-63
2021/07/28 03:01:52;;;;;;;36.15;15.15;;;24.30;64.30;;;;;;5032371;28;20111;-64
2021/07/28 03:04:19;;;;;;;26.25;13.77;;;24.30;64.40;;;;;;5032141;28;20191;-63
2021/07/28 03:06:45;;;;;;;27.33;13.57;;;24.30;64.50;;;;;;5032516;28;20036;-64
2021/07/28 03:09:11;;;;;;;30.30;13.48;;;24.30;64.50;;;;;;5033325;28;20028;-64
2021/07/28 03:11:37;;;;;;;40.90;15.93;;;24.30;64.60;;;;;;5033227;28;20096;-63
2021/07/28 03:14:02;;;;;;;28.40;14.60;;;24.30;64.20;;;;;;5033616;28;20029;-64
2021/07/28 03:16:28;;;;;;;26.92;14.75;;;24.30;63.90;;;;;;5030913;28;20033;-63
2021/07/28 03:18:54;;;;;;;32.15;14.77;;;24.30;63.80;;;;;;5032042;28;20448;-64
2021/07/28 03:21:20;;;;;;;29.55;14.85;;;24.30;64.20;;;;;;5032636;28;20033;-65
2021/07/28 03:23:45;;;;;;;29.50;13.52;;;24.30;64.30;;;;;;5031560;28;20045;-64
2021/07/28 03:26:11;;;;;;;26.85;14.55;;;24.30;64.30;;;;;;5037618;28;20022;-64
2021/07/28 03:28:37;;;;;;;22.63;12.85;;;24.30;64.80;;;;;;5037354;28;20501;-64
2021/07/28 03:31:03;;;;;;;26.02;12.98;;;24.40;64.00;;;;;;5035665;28;20486;-64
2021/07/28 03:33:29;;;;;;;27.25;13.43;;;24.40;64.10;;;;;;5035469;28;20061;-64
2021/07/28 03:35:54;;;;;;;26.33;13.45;;;24.40;64.20;;;;;;5035948;28;20025;-65
2021/07/28 03:38:20;;;;;;;25.67;13.10;;;24.40;64.00;;;;;;5034991;28;20414;-64
2021/07/28 03:40:46;;;;;;;26.60;14.20;;;24.50;64.10;;;;;;5036032;28;20124;-64
2021/07/28 03:43:13;;;;;;;28.40;14.10;;;24.50;64.00;;;;;;5035844;28;20079;-65
2021/07/28 03:45:38;;;;;;;27.10;13.68;;;24.50;63.70;;;;;;5035379;28;20021;-66
2021/07/28 03:48:04;;;;;;;25.40;13.95;;;24.50;63.80;;;;;;5035776;28;20341;-65
2021/07/28 03:50:30;;;;;;;27.42;14.45;;;24.50;63.80;;;;;;5035990;28;20021;-65
2021/07/28 03:52:57;;;;;;;29.33;14.50;;;24.60;64.00;;;;;;5036849;28;20033;-64
2021/07/28 03:55:23;;;;;;;31.90;14.65;;;24.60;63.90;;;;;;5035615;28;20021;-65
2021/07/28 03:57:49;;;;;;;18.23;11.82;;;24.70;64.10;;;;;;5031702;28;20029;-67
2021/07/28 04:00:15;;;;;;;17.40;10.48;;;24.70;64.10;;;;;;5032116;28;20506;-65
2021/07/28 04:02:41;;;;;;;25.80;11.93;;;24.80;64.20;;;;;;5035493;28;20045;-65
2021/07/28 04:05:07;;;;;;;23.38;12.98;;;24.70;64.30;;;;;;5034697;28;20022;-65
2021/07/28 04:07:33;;;;;;;17.98;11.60;;;24.80;64.20;;;;;;5024759;28;20025;-65
2021/07/28 04:09:58;;;;;;;20.33;11.82;;;24.80;64.00;;;;;;5034745;28;20025;-65
2021/07/28 04:12:24;;;;;;;17.55;10.90;;;25.00;64.00;;;;;;5033822;28;20025;-65
2021/07/28 04:14:50;;;;;;;18.40;10.27;;;25.10;63.70;;;;;;5034093;28;20032;-65
2021/07/28 04:17:16;;;;;;;17.27;10.27;;;25.20;63.50;;;;;;5029206;28;20030;-66
2021/07/28 04:19:48;;;;;;;17.52;10.15;;;25.30;63.90;;;;;;5028696;28;20021;-65
2021/07/28 04:22:17;;;;;;;14.15;10.75;;;25.50;64.20;;;;;;5034555;28;20033;-65
2021/07/28 04:24:43;;;;;;;20.17;10.27;;;25.90;63.80;;;;;;5035413;28;20031;-65
2021/07/28 04:27:08;;;;;;;15.40;10.07;;;26.30;63.40;;;;;;5035385;28;20025;-65
2021/07/28 04:29:34;;;;;;;18.08;10.00;;;26.70;62.60;;;;;;5035845;28;20029;-65
2021/07/28 04:32:00;;;;;;;18.77;9.65;;;27.20;62.10;;;;;;5033751;28;20048;-66
2021/07/28 04:34:26;;;;;;;16.00;10.18;;;27.60;61.00;;;;;;5067183;28;20465;-65
2021/07/28 04:36:51;;;;;;;16.08;9.65;;;28.00;60.40;;;;;;5032113;28;20021;-66
2021/07/28 04:39:17;;;;;;;17.50;9.85;;;28.30;60.20;;;;;;5031227;28;20089;-72
2021/07/28 04:41:43;;;;;;;14.90;9.43;;;28.40;59.80;;;;;;5034078;28;20415;-73
2021/07/28 04:44:08;;;;;;;21.00;12.25;;;28.30;59.00;;;;;;5033990;28;20483;-73
2021/07/28 04:46:34;;;;;;;15.38;9.43;;;28.10;59.00;;;;;;5034755;28;20049;-73
2021/07/28 04:49:00;;;;;;;22.85;10.40;;;27.90;59.80;;;;;;5036485;28;20030;-73
2021/07/28 04:51:26;;;;;;;28.13;11.82;;;27.70;59.80;;;;;;5036010;28;20025;-73
2021/07/28 04:53:53;;;;;;;16.98;10.63;;;27.50;59.90;;;;;;5035499;28;20026;-73
2021/07/28 04:56:19;;;;;;;20.98;11.82;;;27.30;59.90;;;;;;5034354;28;20025;-73
2021/07/28 04:58:44;;;;;;;22.50;11.77;;;27.10;60.40;;;;;;5035321;28;20021;-73
2021/07/28 05:01:10;;;;;;;26.15;13.15;;;26.80;60.60;;;;;;5037173;28;20025;-72
2021/07/28 05:03:36;;;;;;;23.88;12.93;;;26.70;61.20;;;;;;5033757;28;20056;-72
2021/07/28 05:06:01;;;;;;;24.63;15.35;;;26.50;61.80;;;;;;5018516;28;20033;-70
2021/07/28 05:08:27;;;;;;;22.95;14.43;;;26.40;62.20;;;;;;5033991;28;20018;-70
2021/07/28 05:10:53;;;;;;;27.63;14.20;;;26.20;62.80;;;;;;5035245;28;20450;-70
2021/07/28 05:13:19;;;;;;;28.13;14.40;;;26.10;63.30;;;;;;5034177;28;20036;-68
2021/07/28 05:15:44;;;;;;;35.58;16.33;;;26.30;63.80;;;;;;5065157;28;20022;-68
2021/07/28 05:18:10;;;;;;;38.55;16.90;;;26.40;63.50;;;;;;5033850;28;20082;-68
2021/07/28 05:20:36;;;;;;;35.88;19.23;;;26.40;63.70;;;;;;5032801;28;20021;-70
2021/07/28 05:23:03;;;;;;;32.42;17.65;;;26.50;63.60;;;;;;5034723;28;20060;-63
2021/07/28 05:25:29;;;;;;;31.15;14.90;;;26.40;63.30;;;;;;5033696;28;20024;-69
2021/07/28 05:27:55;;;;;;;22.10;14.90;;;26.40;63.00;;;;;;5032533;28;20026;-76
2021/07/28 05:30:21;;;;;;;25.75;14.32;;;26.40;63.10;;;;;;5032290;28;20075;-75
2021/07/28 05:32:46;;;;;;;27.50;16.52;;;26.30;63.20;;;;;;5030574;28;20476;-71
2021/07/28 05:35:12;;;;;;;20.10;13.93;;;26.30;63.40;;;;;;5033629;28;20208;-73
2021/07/28 05:37:38;;;;;;;22.27;13.52;;;26.30;63.80;;;;;;5029099;28;20052;-72
2021/07/28 05:40:04;;;;;;;22.73;13.98;;;26.20;63.80;;;;;;5066766;28;20033;-74
2021/07/28 05:42:30;;;;;;;19.58;12.90;;;26.20;63.90;;;;;;5063376;28;20034;-71
2021/07/28 05:44:56;;;;;;;26.42;12.77;;;26.10;64.10;;;;;;5032889;28;20024;-69
2021/07/28 05:47:22;;;;;;;23.45;13.13;;;26.00;64.50;;;;;;5033271;28;20029;-69
2021/07/28 05:49:47;;;;;;;21.95;11.32;;;25.90;65.00;;;;;;5032461;28;20052;-69
2021/07/28 05:52:13;;;;;;;20.85;11.55;;;25.90;65.00;;;;;;5031871;28;20385;-69
2021/07/28 05:54:39;;;;;;;20.33;11.13;;;25.90;64.80;;;;;;5033914;28;20033;-76
2021/07/28 05:57:04;;;;;;;23.75;11.05;;;25.90;64.90;;;;;;5033721;28;20092;-75
2021/07/28 05:59:30;;;;;;;15.82;10.02;;;26.00;64.90;;;;;;5022212;28;20022;-69
2021/07/28 06:01:55;;;;;;;21.75;11.38;;;26.00;64.80;;;;;;5032118;28;20075;-70
2021/07/28 06:04:21;;;;;;;17.55;10.77;;;26.10;64.80;;;;;;5033275;28;20033;-70
2021/07/28 06:06:47;;;;;;;20.20;11.32;;;26.10;64.80;;;;;;5046106;28;20024;-70
2021/07/28 06:09:12;;;;;;;22.55;11.73;;;26.30;65.10;;;;;;5047756;28;20025;-70
2021/07/28 06:11:38;;;;;;;15.88;11.30;;;26.30;65.20;;;;;;5044808;28;20028;-70
2021/07/28 06:14:04;;;;;;;19.92;13.15;;;26.40;65.30;;;;;;5036763;28;20539;-70
2021/07/28 06:16:30;;;;;;;19.45;11.68;;;26.50;65.30;;;;;;5031184;28;20025;-70
2021/07/28 06:18:55;;;;;;;22.98;11.40;;;26.60;65.60;;;;;;5033891;28;20025;-70
2021/07/28 06:21:21;;;;;;;26.10;11.45;;;26.70;64.90;;;;;;5043266;28;20517;-70
2021/07/28 06:23:47;;;;;;;18.20;10.27;;;26.80;64.30;;;;;;5033920;28;20030;-72
2021/07/28 06:26:12;;;;;;;16.77;10.43;;;26.80;63.80;;;;;;5032069;28;20439;-75
2021/07/28 06:28:38;;;;;;;17.55;11.30;;;26.90;63.70;;;;;;5022717;28;20024;-75
2021/07/28 06:31:04;;;;;;;18.52;10.00;;;26.80;63.50;;;;;;5035491;28;20118;-75
2021/07/28 06:33:29;;;;;;;20.58;11.75;;;26.80;64.00;;;;;;5033203;28;20025;-75
2021/07/28 06:35:55;;;;;;;23.92;11.40;;;26.70;65.00;;;;;;5032209;28;20048;-75
2021/07/28 06:38:21;;;;;;;23.17;13.52;;;26.60;65.30;;;;;;5030979;28;20025;-73
2021/07/28 06:40:47;;;;;;;31.63;14.73;;;26.50;65.40;;;;;;5032754;28;20104;-74
2021/07/28 06:43:13;;;;;;;26.58;14.05;;;26.40;65.30;;;;;;5032649;28;20033;-74
2021/07/28 06:45:39;;;;;;;22.98;13.68;;;26.20;65.10;;;;;;5030688;28;20176;-82
2021/07/28 06:48:05;;;;;;;23.95;12.93;;;26.20;65.00;;;;;;5021664;28;20013;-74
2021/07/28 06:50:31;;;;;;;19.67;12.77;;;26.10;65.00;;;;;;5032593;28;20021;-74
2021/07/28 06:52:57;;;;;;;17.38;12.95;;;26.00;65.10;;;;;;5032841;28;20095;-68
2021/07/28 06:55:23;;;;;;;21.95;13.10;;;26.00;65.20;;;;;;5033267;28;20021;-74
2021/07/28 06:57:48;;;;;;;19.65;12.77;;;25.90;65.60;;;;;;5033398;28;20025;-74
2021/07/28 07:00:15;;;;;;;22.73;12.90;;;25.90;66.30;;;;;;5033553;28;20025;-73
2021/07/28 07:02:40;;;;;;;22.98;12.52;;;25.70;67.90;;;;;;5031815;28;20049;-74
2021/07/28 07:05:08;;;;;;;15.13;9.00;;;25.50;68.20;;;;;;5032212;28;20025;-74
2021/07/28 07:07:34;;;;;;;15.15;7.45;;;25.30;69.00;;;;;;5033415;28;20029;-73
2021/07/28 07:10:00;;;;;;;10.00;6.60;;;25.20;69.50;;;;;;5033484;28;20416;-75
2021/07/28 07:12:27;;;;;;;12.02;5.90;;;25.00;70.00;;;;;;5032403;28;20029;-74
2021/07/28 07:14:53;;;;;;;10.75;4.95;;;24.90;70.60;;;;;;5033622;28;20020;-76
2021/07/28 07:17:19;;;;;;;5.78;4.07;;;24.80;70.90;;;;;;5032081;28;20371;-76
2021/07/28 07:19:44;;;;;;;8.57;4.55;;;24.60;71.20;;;;;;5032187;28;20017;-77
2021/07/28 07:22:10;;;;;;;7.57;4.28;;;24.50;71.80;;;;;;5032105;28;20024;-76
2021/07/28 07:24:36;;;;;;;10.57;4.43;;;24.30;72.40;;;;;;5032340;28;20087;-77
2021/07/28 07:27:02;;;;;;;8.82;5.00;;;24.20;72.90;;;;;;5033575;28;20336;-78
2021/07/28 07:29:27;;;;;;;10.02;5.50;;;24.00;73.70;;;;;;5033216;28;20091;-79
2021/07/28 07:31:53;;;;;;;9.82;4.10;;;24.00;74.70;;;;;;5032058;28;20414;-78
2021/07/28 07:34:20;;;;;;;14.13;5.38;;;23.80;74.90;;;;;;5032053;28;20029;-76
2021/07/28 07:36:46;;;;;;;12.45;5.30;;;23.60;76.40;;;;;;5031842;28;20116;-76
2021/07/28 07:39:12;;;;;;;12.93;5.50;;;23.30;78.10;;;;;;5033522;28;20406;-78
2021/07/28 07:41:37;;;;;;;10.48;5.78;;;22.90;79.80;;;;;;5033118;28;20022;-77
2021/07/28 07:44:04;;;;;;;15.73;6.60;;;22.60;81.30;;;;;;5033122;28;20059;-77
2021/07/28 07:46:29;;;;;;;27.42;10.93;;;22.40;82.70;;;;;;5033567;28;20039;-77
2021/07/28 07:48:56;;;;;;;22.17;9.98;;;22.20;84.20;;;;;;5031965;28;20116;-82
2021/07/28 07:51:22;;;;;;;32.88;13.07;;;22.10;85.40;;;;;;5033072;28;20026;-78
2021/07/28 07:53:48;;;;;;;51.22;18.58;;;22.00;87.50;;;;;;5033339;28;20049;-79
2021/07/28 07:56:14;;;;;;;45.67;16.40;;;21.80;88.70;;;;;;5032041;28;20029;-78
2021/07/28 07:58:40;;;;;;;39.10;15.20;;;21.80;89.70;;;;;;5033314;28;20029;-79
2021/07/28 08:01:10;;;;;;;36.40;13.82;;;21.70;90.20;;;;;;5032225;28;20026;-79
2021/07/28 08:03:36;;;;;;;25.48;11.63;;;21.70;91.00;;;;;;5032049;28;20053;-80
2021/07/28 08:06:02;;;;;;;22.95;9.82;;;21.80;91.20;;;;;;5031841;28;20045;-78
2021/07/28 08:08:28;;;;;;;19.90;8.63;;;21.80;91.30;;;;;;5033646;28;20029;-77
2021/07/28 08:10:55;;;;;;;17.25;8.50;;;21.90;91.50;;;;;;5033700;28;20112;-77
2021/07/28 08:13:24;;;;;;;17.60;7.85;;;22.00;91.40;;;;;;5036822;28;20025;-76
2021/07/28 08:15:50;;;;;;;17.73;8.60;;;22.10;91.30;;;;;;5035241;28;20033;-76
2021/07/28 08:18:17;;;;;;;16.90;8.27;;;22.30;91.30;;;;;;5036642;28;20036;-76
2021/07/28 08:20:42;;;;;;;15.88;7.80;;;22.50;91.00;;;;;;5035272;28;20448;-77
2021/07/28 08:23:08;;;;;;;16.00;7.72;;;22.70;90.90;;;;;;5036593;28;20044;-76
2021/07/28 08:25:34;;;;;;;13.90;8.93;;;22.90;90.70;;;;;;5035413;28;20120;-76
2021/07/28 08:27:59;;;;;;;13.07;8.10;;;23.30;90.60;;;;;;5035183;28;20095;-76
2021/07/28 08:30:25;;;;;;;13.02;8.80;;;23.70;90.10;;;;;;5036446;28;20116;-76
2021/07/28 08:32:51;;;;;;;14.18;8.45;;;24.30;88.80;;;;;;5035131;28;20032;-76
2021/07/28 08:35:16;;;;;;;11.57;8.05;;;24.80;86.00;;;;;;5035046;28;20075;-76
2021/07/28 08:37:43;;;;;;;11.30;7.93;;;25.30;83.70;;;;;;5036358;28;20029;-76
2021/07/28 08:40:13;;;;;;;14.75;7.97;;;25.90;82.30;;;;;;5036373;28;20119;-76
2021/07/28 08:42:41;;;;;;;11.90;8.50;;;26.30;79.50;;;;;;5036403;28;20574;-76
2021/07/28 08:45:08;;;;;;;13.77;7.13;;;26.70;78.10;;;;;;5036227;28;20017;-76
2021/07/28 08:47:37;;;;;;;9.50;7.32;;;27.30;76.90;;;;;;5036056;28;20075;-76
2021/07/28 08:50:08;;;;;;;12.57;7.68;;;27.90;74.40;;;;;;5035505;28;20022;-79
2021/07/28 08:52:34;;;;;;;10.85;7.32;;;28.40;73.20;;;;;;5034796;28;20029;-78
2021/07/28 08:55:01;;;;;;;10.15;7.05;;;28.70;71.50;;;;;;5035923;28;20022;-78
2021/07/28 08:57:30;;;;;;;14.32;7.30;;;29.20;70.50;;;;;;5036024;28;20057;-77
2021/07/28 08:59:57;;;;;;;12.30;7.70;;;29.60;69.40;;;;;;5035629;28;20076;-76
2021/07/28 09:02:23;;;;;;;9.82;7.30;;;29.90;68.70;;;;;;5033961;28;20140;-77
2021/07/28 09:04:48;;;;;;;10.32;7.35;;;30.30;66.90;;;;;;5035753;28;20172;-77
2021/07/28 09:07:15;;;;;;;11.23;7.13;;;30.50;66.20;;;;;;5035752;28;20037;-77
2021/07/28 09:09:51;;;;;;;10.43;7.32;;;30.70;65.30;;;;;;5034267;28;20048;-78
2021/07/28 09:12:18;;;;;;;12.60;7.60;;;31.10;64.10;;;;;;5034444;28;20474;-77
2021/07/28 09:14:55;;;;;;;11.50;7.65;;;31.30;63.00;;;;;;5034187;28;20564;-77
2021/07/28 09:17:34;;;;;;;12.73;8.02;;;31.40;62.30;;;;;;5035759;28;20113;-78
2021/07/28 09:20:00;;;;;;;12.32;7.07;;;31.50;62.50;;;;;;5034222;28;20112;-78
2021/07/28 09:22:33;;;;;;;13.68;7.38;;;31.80;61.40;;;;;;5034089;28;20021;-77
2021/07/28 09:25:21;;;;;;;9.25;7.25;;;31.90;60.40;;;;;;5033843;28;20038;-78
2021/07/28 09:27:49;;;;;;;9.60;7.20;;;32.10;60.50;;;;;;5035642;28;20451;-77
2021/07/28 09:30:17;;;;;;;8.73;6.70;;;32.40;60.10;;;;;;5035126;28;20108;-78
2021/07/28 09:32:57;;;;;;;10.00;6.38;;;32.80;59.30;;;;;;5035090;28;20021;-78
2021/07/28 09:36:00;;;;;;;10.52;6.88;;;33.00;58.00;;;;;;5035075;28;20475;-78
2021/07/28 09:38:35;;;;;;;9.43;6.75;;;33.30;58.00;;;;;;5034834;28;20030;-78
2021/07/28 09:41:24;;;;;;;16.00;8.20;;;33.50;56.40;;;;;;5034864;28;20056;-78
2021/07/28 09:44:00;;;;;;;11.07;6.63;;;33.70;56.20;;;;;;5034586;28;20024;-76
2021/07/28 09:46:36;;;;;;;11.02;7.22;;;33.90;56.10;;;;;;5035157;28;20105;-76
2021/07/28 09:49:09;;;;;;;11.27;7.80;;;34.10;55.80;;;;;;5034785;28;20026;-76
2021/07/28 09:51:40;;;;;;;10.55;6.82;;;34.30;56.00;;;;;;5034869;28;20358;-76
2021/07/28 09:54:13;;;;;;;8.25;7.00;;;34.60;55.90;;;;;;5034910;28;20457;-75
2021/07/28 09:56:58;;;;;;;11.50;7.63;;;34.80;55.10;;;;;;5034240;28;20476;-75
2021/07/28 09:59:24;;;;;;;9.73;7.35;;;35.00;54.60;;;;;;5033603;28;20033;-74
2021/07/28 10:01:52;;;;;;;16.63;9.43;;;35.10;55.10;;;;;;5034317;28;20033;-74
2021/07/28 10:04:19;;;;;;;11.77;8.77;;;35.30;54.60;;;;;;5034274;28;20041;-75
2021/07/28 10:06:47;;;;;;;10.88;8.63;;;35.50;54.60;;;;;;5033980;28;20029;-74
2021/07/28 10:09:16;;;;;;;12.68;8.20;;;35.80;53.30;;;;;;5034304;28;20029;-75
2021/07/28 10:11:46;;;;;;;54.83;19.92;;;35.80;53.90;;;;;;5034425;28;20048;-76
2021/07/28 10:14:16;;;;;;;52.35;18.60;;;36.10;53.40;;;;;;5034507;28;20017;-76
2021/07/28 10:16:42;;;;;;;25.63;11.77;;;36.30;53.10;;;;;;5033137;28;20028;-75
2021/07/28 10:19:09;;;;;;;12.48;7.50;;;36.30;51.40;;;;;;5034143;28;20025;-73
2021/07/28 10:21:35;;;;;;;11.43;6.78;;;36.10;50.50;;;;;;5032840;28;20112;-75
2021/07/28 10:24:03;;;;;;;11.73;6.80;;;36.00;50.60;;;;;;5034026;28;20367;-75
2021/07/28 10:26:33;;;;;;;10.80;6.78;;;35.90;50.80;;;;;;5033085;28;20052;-77
2021/07/28 10:28:59;;;;;;;12.80;7.20;;;35.80;51.00;;;;;;5033228;28;20021;-78
2021/07/28 10:31:25;;;;;;;13.68;8.18;;;35.60;51.50;;;;;;5032784;28;20451;-78
2021/07/28 10:33:55;;;;;;;14.32;7.50;;;35.80;51.80;;;;;;5033392;28;20052;-78
2021/07/28 10:36:42;;;;;;;12.75;8.13;;;35.90;50.90;;;;;;5034335;28;20031;-77
2021/07/28 10:39:08;;;;;;;22.65;11.50;;;35.80;50.50;;;;;;5032587;28;20022;-78
2021/07/28 10:41:37;;;;;;;35.65;16.08;;;35.80;51.10;;;;;;5032743;28;20374;-77
2021/07/28 10:44:15;;;;;;;13.13;8.52;;;36.10;50.50;;;;;;5032775;28;20033;-78
2021/07/28 10:46:53;;;;;;;19.13;8.68;;;36.30;49.60;;;;;;5032714;28;20363;-78
2021/07/28 10:49:37;;;;;;;13.25;8.25;;;36.10;49.60;;;;;;5032770;28;20021;-76
2021/07/28 10:52:04;;;;;;;16.67;10.25;;;35.90;50.10;;;;;;5033798;28;20028;-77
2021/07/28 10:57:38;;;;;;;16.23;8.65;;;35.80;51.00;;;;;;5033749;28;20033;-77
2021/07/28 11:00:09;;;;;;;14.32;8.32;;;35.90;51.50;;;;;;5033635;28;20107;-77
2021/07/28 11:02:59;;;;;;;15.43;9.15;;;35.80;51.40;;;;;;5032330;28;20426;-77
2021/07/28 11:05:28;;;;;;;13.23;8.88;;;35.70;51.20;;;;;;5034038;28;20025;-77
2021/07/28 11:08:05;;;;;;;12.85;8.23;;;35.50;51.60;;;;;;5032434;28;20141;-76
2021/07/28 11:10:44;;;;;;;13.15;9.38;;;35.20;51.80;;;;;;5032197;28;20033;-77
2021/07/28 11:13:11;;;;;;;14.07;9.07;;;35.10;51.90;;;;;;5033421;28;20029;-76
2021/07/28 11:15:38;;;;;;;13.85;8.52;;;35.20;52.30;;;;;;5033410;28;20044;-77
2021/07/28 11:18:05;;;;;;;11.80;8.75;;;35.20;52.00;;;;;;5031920;28;20026;-78
2021/07/28 11:20:36;;;;;;;13.75;8.60;;;35.10;52.40;;;;;;5032283;28;20486;-75
2021/07/28 11:23:21;;;;;;;18.23;9.68;;;34.70;52.60;;;;;;5032442;28;20448;-74
2021/07/28 11:25:50;;;;;;;17.77;12.32;;;34.30;53.50;;;;;;5033490;28;20026;-75
2021/07/28 11:28:19;;;;;;;23.25;11.98;;;33.90;54.50;;;;;;5033420;28;20037;-74
2021/07/28 11:30:54;;;;;;;41.03;12.88;;;33.60;54.80;;;;;;5033189;28;20037;-75
2021/07/28 11:33:20;;;;;;;50.83;16.38;;;33.30;55.40;;;;;;5033639;28;20414;-75
2021/07/28 11:35:47;;;;;;;35.70;15.43;;;33.30;55.90;;;;;;5032011;28;20164;-75
2021/07/28 11:38:17;;;;;;;31.90;16.50;;;33.20;56.20;;;;;;5032115;28;20063;-76
2021/07/28 11:40:47;;;;;;;30.77;14.32;;;33.10;56.80;;;;;;5032132;28;20417;-76
2021/07/28 11:43:28;;;;;;;42.03;15.88;;;33.00;57.10;;;;;;5033516;28;20029;-76
2021/07/28 11:45:59;;;;;;;31.95;17.23;;;32.70;57.50;;;;;;5035425;28;20402;-76
2021/07/28 11:48:37;;;;;;;16.98;10.55;;;32.60;58.60;;;;;;5035802;28;20167;-76
2021/07/28 11:51:05;;;;;;;14.77;9.90;;;32.50;58.80;;;;;;5035529;28;20112;-76
2021/07/28 11:53:32;;;;;;;26.67;10.75;;;32.50;58.40;;;;;;5036836;28;20083;-76
2021/07/28 11:56:11;;;;;;;48.00;13.52;;;32.60;58.60;;;;;;5035874;28;20112;-76
2021/07/28 11:58:47;;;;;;;19.23;9.63;;;32.60;59.20;;;;;;5035776;28;20029;-77
2021/07/28 12:01:33;;;;;;;15.50;8.98;;;32.60;59.10;;;;;;5036810;28;20059;-77
2021/07/28 12:04:09;;;;;;;50.88;14.70;;;32.70;58.90;;;;;;5035156;28;20045;-77
2021/07/28 12:06:43;;;;;;;37.22;12.27;;;32.70;59.40;;;;;;5035706;28;20370;-76
2021/07/28 12:09:21;;;;;;;18.42;9.68;;;32.60;59.60;;;;;;5037081;28;20439;-77
2021/07/28 12:12:02;;;;;;;13.75;9.32;;;32.70;59.70;;;;;;5035467;28;20033;-77
2021/07/28 12:14:33;;;;;;;15.70;9.43;;;32.70;59.60;;;;;;5035293;28;20467;-77
2021/07/28 12:17:01;;;;;;;15.52;9.98;;;32.70;59.70;;;;;;5036781;28;20018;-77
2021/07/28 12:19:30;;;;;;;15.32;9.32;;;32.70;59.40;;;;;;5036655;28;20465;-77
2021/07/28 12:22:00;;;;;;;11.75;9.48;;;32.70;60.00;;;;;;5036802;28;20105;-78
2021/07/28 12:24:35;;;;;;;24.80;10.40;;;32.70;59.70;;;;;;5036480;28;20021;-77
2021/07/28 12:27:35;;;;;;;57.00;14.80;;;32.70;59.60;;;;;;5035564;28;20026;-77
2021/07/28 12:30:06;;;;;;;65.72;18.35;;;32.60;59.80;;;;;;5035671;28;20460;-77
2021/07/28 12:32:41;;;;;;;33.63;12.32;;;32.50;60.30;;;;;;5034995;28;20029;-76
2021/07/28 12:35:26;;;;;;;22.70;12.02;;;32.50;60.50;;;;;;5034984;28;20026;-78
2021/07/28 12:38:24;;;;;;;16.23;9.77;;;32.70;60.60;;;;;;5035362;28;20026;-77
2021/07/28 12:41:03;;;;;;;16.75;10.20;;;32.70;60.00;;;;;;5034585;28;20047;-77
2021/07/28 12:43:31;;;;;;;16.92;9.82;;;32.70;59.80;;;;;;5035368;28;20371;-78
2021/07/28 12:46:04;;;;;;;13.93;9.20;;;32.80;60.00;;;;;;5036206;28;20104;-77